Marietta, GA (30006)

12:21 PM EDT on September 05, 2015 (GMT -0400)
ChaserFromGa.Com | | Change Station
CLOSE
Current Station
Personal Weather Station
Location: Marietta, GA
Elevation: 1115 ft
Nearby Weather Stations

Elev 1115 ft 33.96 °N, 84.55 °W | Updated 2 seconds ago

Scattered Clouds
Scattered Clouds
82.3 °F
Feels Like 86 °F
N
0.0
Wind Variable Wind from NNE
Gusts 2.0 mph

Today
High -- | Low -- °F
--% Chance of Precip.
Yesterday
High -- | Low -- °F
Precip. -- in
7:14 AM 7:58 PM
Waning Gibbous, 47% visible
Pressure 30.14 in
Visibility 10.0 miles
Clouds Few 2800 ft
Scattered Clouds 25000 ft
Heat Index 86 °F
Dew Point 69 °F
Humidity 64%
Rainfall 0.00 in
Snow Depth Not available.
UV 7 out of 12
Pollen 8.80 out of 12
Air Quality Not available.
Flu Activity Not available.
METAR KMGE 051558Z 10009KT 10SM FEW028 SCT250 27/20 A3016 RMK AO2A SLP204 T02730202 $
Pressure 30.14 in
Visibility 10.0 miles
Clouds Few 2800 ft
Scattered Clouds 25000 ft
Heat Index 86 °F
Dew Point 69 °F
Humidity 64%
Rainfall 0.00 in
Snow Depth Not available.
UV 7 out of 12
Pollen 8.80 out of 12
Air Quality Not available.
Flu Activity Not available.
METAR KMGE 051558Z 10009KT 10SM FEW028 SCT250 27/20 A3016 RMK AO2A SLP204 T02730202 $

10-Day Weather Forecast

×

Almanac

Astronomy

Sep. 05, 2015 Rise Set
Actual Time
Civil Twilight
Nautical Twilight
Astronomical Twilight
Moon
Length of Visible Light
Length of Day
Tomorrow will be .
, % of the Moon is Illuminated

Today's Extremes

State Highs State Lows

Community

WunderPhotos

Upload Photos

1,852,495 photos uploaded!

WunderBlogs® & News

Nearby

Air Quality

  Air Quality AQ Index Pollutant
Not available.

Snow Depth

Station Depth Elevation

Earthquake Activity

City Distance Mag. Time & Date
Minimum magnitude displayed is 2.5.

Coastal Water Temperatures

Place Temperature

Stations

Nearby Weather Stations

Station Location Temp. Windchill Dew Point Humidity Wind Precip. Elev Updated Type